Time;durP1;ratioP1;P1;durP2;ratioP2;P2;SDS_P1;SDS_P2;PMS_P1;PMS_P2;Temp;Humidity;BMP_temperature;BMP_pressure;BME280_temperature;BME280_humidity;BME280_pressure;Samples;Min_cycle;Max_cycle;Signal;HPM_P1;HPM_P2
2023/07/22 00:03:57;;;;;;;12.18;10.93;;;;;;;;;;10355629;28;20756;-69
2023/07/22 00:08:53;;;;;;;12.15;11.00;;;;;;;;;;10363734;28;20052;-68
2023/07/22 00:13:50;;;;;;;12.38;11.32;;;;;;;;;;10355741;28;20082;-68
2023/07/22 00:18:47;;;;;;;12.98;11.68;;;;;;;;;;10359944;28;20067;-68
2023/07/22 00:23:46;;;;;;;12.15;11.05;;;;;;;;;;10348433;28;20050;-68
2023/07/22 00:28:43;;;;;;;13.10;11.82;;;;;;;;;;10355401;28;20040;-67
2023/07/22 00:33:39;;;;;;;12.18;11.18;;;;;;;;;;10353801;28;20040;-67
2023/07/22 00:38:36;;;;;;;12.00;10.95;;;;;;;;;;10358767;28;20094;-68
2023/07/22 00:43:32;;;;;;;13.98;12.60;;;;;;;;;;10358093;28;20708;-67
2023/07/22 00:48:29;;;;;;;14.60;12.50;;;;;;;;;;10349254;28;20044;-68
2023/07/22 00:53:25;;;;;;;15.82;14.23;;;;;;;;;;10360329;28;20048;-67
2023/07/22 00:58:22;;;;;;;14.82;13.18;;;;;;;;;;10339520;28;20064;-67
2023/07/22 01:03:18;;;;;;;14.38;13.07;;;;;;;;;;10343662;28;20492;-68
2023/07/22 01:08:15;;;;;;;13.40;12.18;;;;;;;;;;10323715;28;20063;-68
2023/07/22 01:13:12;;;;;;;14.30;12.90;;;;;;;;;;10352610;28;20428;-67
2023/07/22 01:18:08;;;;;;;14.90;13.32;;;;;;;;;;10346446;28;20068;-66
2023/07/22 01:23:04;;;;;;;13.55;12.00;;;;;;;;;;10351579;28;20041;-67
2023/07/22 01:28:01;;;;;;;16.33;13.23;;;;;;;;;;10357405;28;20606;-67
2023/07/22 01:33:00;;;;;;;15.73;12.68;;;;;;;;;;10333686;28;20044;-67
2023/07/22 01:37:56;;;;;;;14.50;13.10;;;;;;;;;;10350841;28;20071;-66
2023/07/22 01:42:53;;;;;;;13.82;12.57;;;;;;;;;;10349614;28;20056;-68
2023/07/22 01:47:49;;;;;;;13.55;12.15;;;;;;;;;;10358398;28;20085;-68
2023/07/22 01:52:46;;;;;;;14.07;12.65;;;;;;;;;;10349115;28;20135;-68
2023/07/22 01:57:42;;;;;;;14.85;13.30;;;;;;;;;;10354647;28;20044;-68
2023/07/22 02:02:39;;;;;;;13.75;12.30;;;;;;;;;;10349294;28;20106;-68
2023/07/22 02:07:35;;;;;;;17.67;12.85;;;;;;;;;;10348502;28;20091;-68
2023/07/22 02:12:33;;;;;;;15.95;11.50;;;;;;;;;;10353865;28;20052;-68
2023/07/22 02:17:30;;;;;;;13.07;11.68;;;;;;;;;;10357497;28;20469;-69
2023/07/22 02:22:27;;;;;;;14.30;12.45;;;;;;;;;;10362494;28;20062;-69
2023/07/22 02:27:26;;;;;;;13.32;12.02;;;;;;;;;;10359501;28;20404;-69
2023/07/22 02:32:22;;;;;;;13.63;11.40;;;;;;;;;;10341737;28;20093;-69
2023/07/22 02:37:19;;;;;;;13.38;11.98;;;;;;;;;;10355804;28;20445;-69
2023/07/22 02:42:15;;;;;;;13.70;12.27;;;;;;;;;;10361441;28;20426;-69
2023/07/22 02:47:11;;;;;;;16.60;12.10;;;;;;;;;;10358136;28;20079;-69
2023/07/22 02:52:08;;;;;;;16.88;12.80;;;;;;;;;;10358386;28;20101;-69
2023/07/22 02:57:04;;;;;;;17.92;14.43;;;;;;;;;;10357538;28;20051;-69
2023/07/22 03:02:00;;;;;;;15.55;13.60;;;;;;;;;;10366159;28;20052;-67
2023/07/22 03:06:57;;;;;;;16.15;13.52;;;;;;;;;;10330702;28;20060;-67
2023/07/22 03:11:53;;;;;;;14.77;13.27;;;;;;;;;;10369001;28;20052;-66
2023/07/22 03:16:49;;;;;;;16.90;14.25;;;;;;;;;;10352735;28;20087;-68
2023/07/22 03:21:46;;;;;;;16.65;13.23;;;;;;;;;;10355919;28;20055;-68
2023/07/22 03:26:42;;;;;;;16.58;13.95;;;;;;;;;;10352350;28;20470;-68
2023/07/22 03:31:39;;;;;;;15.23;13.63;;;;;;;;;;10359909;28;20048;-69
2023/07/22 03:36:35;;;;;;;16.42;13.02;;;;;;;;;;10356920;28;20070;-68
2023/07/22 03:41:31;;;;;;;17.30;13.43;;;;;;;;;;10356364;28;20047;-68
2023/07/22 03:46:28;;;;;;;15.65;13.18;;;;;;;;;;10354556;28;20102;-68
2023/07/22 03:51:24;;;;;;;14.35;12.85;;;;;;;;;;10361536;28;20499;-68
2023/07/22 03:56:21;;;;;;;15.90;13.15;;;;;;;;;;10351463;28;20507;-67
2023/07/22 04:01:17;;;;;;;17.45;13.82;;;;;;;;;;10360627;28;20048;-68
2023/07/22 04:06:14;;;;;;;16.10;13.57;;;;;;;;;;10345971;28;20367;-69
2023/07/22 04:11:10;;;;;;;15.93;12.57;;;;;;;;;;10358768;28;20050;-69
2023/07/22 04:16:07;;;;;;;16.20;13.65;;;;;;;;;;10338891;28;20047;-69
2023/07/22 04:21:03;;;;;;;17.33;13.32;;;;;;;;;;10354275;28;20048;-68
2023/07/22 04:26:01;;;;;;;15.40;13.57;;;;;;;;;;10352163;28;20075;-68
2023/07/22 04:30:58;;;;;;;16.02;13.23;;;;;;;;;;10356627;28;20100;-69
2023/07/22 04:35:59;;;;;;;14.45;12.93;;;;;;;;;;10345762;28;20064;-69
2023/07/22 04:40:55;;;;;;;18.67;13.57;;;;;;;;;;10350447;28;20725;-68
2023/07/22 04:45:51;;;;;;;14.60;13.02;;;;;;;;;;10360364;28;20052;-69
2023/07/22 04:50:48;;;;;;;16.52;12.73;;;;;;;;;;10350524;28;20105;-69
2023/07/22 04:55:44;;;;;;;16.73;12.40;;;;;;;;;;10352853;28;20397;-70
2023/07/22 05:00:42;;;;;;;14.73;12.60;;;;;;;;;;10352149;28;20047;-68
2023/07/22 05:05:39;;;;;;;17.10;13.32;;;;;;;;;;10352531;28;20101;-69
2023/07/22 05:10:36;;;;;;;13.15;11.80;;;;;;;;;;10351710;28;20052;-70
2023/07/22 05:15:32;;;;;;;13.55;12.18;;;;;;;;;;10332520;28;20052;-69
2023/07/22 05:20:29;;;;;;;14.25;12.00;;;;;;;;;;10349337;28;20043;-70
2023/07/22 05:25:25;;;;;;;14.02;11.95;;;;;;;;;;10352591;28;20396;-70
2023/07/22 05:30:21;;;;;;;14.93;12.43;;;;;;;;;;10354142;28;21724;-69
2023/07/22 05:35:29;;;;;;;14.13;11.75;;;;;;;;;;10350412;28;20423;-67
2023/07/22 05:40:26;;;;;;;14.57;12.65;;;;;;;;;;10352894;28;20069;-67
2023/07/22 05:45:22;;;;;;;13.75;12.25;;;;;;;;;;10355576;28;20056;-67
2023/07/22 05:50:18;;;;;;;13.13;11.77;;;;;;;;;;10367609;28;20104;-68
2023/07/22 05:55:15;;;;;;;16.25;11.60;;;;;;;;;;10361577;28;20192;-68
2023/07/22 06:00:12;;;;;;;16.42;12.20;;;;;;;;;;10361976;28;20060;-68
2023/07/22 06:05:09;;;;;;;16.20;11.00;;;;;;;;;;10355825;28;20060;-68
2023/07/22 06:10:08;;;;;;;13.77;10.15;;;;;;;;;;10360315;28;20479;-68
2023/07/22 06:15:04;;;;;;;13.10;11.10;;;;;;;;;;10356109;28;20106;-68
2023/07/22 06:20:01;;;;;;;11.93;10.82;;;;;;;;;;10352101;28;20067;-68
2023/07/22 06:24:58;;;;;;;12.48;11.18;;;;;;;;;;10340117;28;20511;-68
2023/07/22 06:29:55;;;;;;;11.77;9.70;;;;;;;;;;10354868;28;20052;-66
2023/07/22 06:34:51;;;;;;;10.57;9.57;;;;;;;;;;10354082;28;20048;-67
2023/07/22 06:39:47;;;;;;;14.27;9.40;;;;;;;;;;10359729;28;20489;-68
2023/07/22 06:44:44;;;;;;;9.52;8.52;;;;;;;;;;10354026;28;20048;-70
2023/07/22 06:49:43;;;;;;;9.40;7.75;;;;;;;;;;10351121;28;20496;-69
2023/07/22 06:54:42;;;;;;;8.93;8.02;;;;;;;;;;10345227;28;20518;-69
2023/07/22 06:59:39;;;;;;;7.97;7.18;;;;;;;;;;10444682;22;20126;-69
2023/07/22 07:04:35;;;;;;;8.82;6.90;;;;;;;;;;10323007;28;20053;-69
2023/07/22 07:09:31;;;;;;;7.47;6.78;;;;;;;;;;10323545;28;20040;-69
2023/07/22 07:14:28;;;;;;;10.13;6.47;;;;;;;;;;10314464;28;20429;-70
2023/07/22 07:19:24;;;;;;;7.43;6.53;;;;;;;;;;10311684;28;20048;-70
2023/07/22 07:24:20;;;;;;;7.22;6.53;;;;;;;;;;10313791;28;20106;-70
2023/07/22 07:29:17;;;;;;;5.78;5.28;;;;;;;;;;10325799;28;20051;-71
2023/07/22 07:34:33;;;;;;;7.28;6.00;;;;;;;;;;10305126;28;20584;-71
2023/07/22 07:39:29;;;;;;;7.57;6.45;;;;;;;;;;10310646;28;20626;-71
2023/07/22 07:44:26;;;;;;;10.85;6.53;;;;;;;;;;10315380;28;20405;-71
2023/07/22 07:49:22;;;;;;;6.55;6.03;;;;;;;;;;10317053;28;20470;-71
2023/07/22 07:54:18;;;;;;;8.65;6.50;;;;;;;;;;10316219;28;20048;-71
2023/07/22 07:59:14;;;;;;;7.25;6.55;;;;;;;;;;10306317;28;20127;-71
2023/07/22 08:04:11;;;;;;;7.40;6.63;;;;;;;;;;10312064;28;20052;-71
2023/07/22 08:09:07;;;;;;;7.65;6.95;;;;;;;;;;10308285;28;20045;-71
2023/07/22 08:14:05;;;;;;;7.85;6.57;;;;;;;;;;10306497;28;20467;-71
2023/07/22 08:19:04;;;;;;;7.68;6.20;;;;;;;;;;10309988;28;20238;-70
2023/07/22 08:24:01;;;;;;;7.22;6.50;;;;;;;;;;10316799;28;20539;-71
2023/07/22 08:34:09;;;;;;;9.95;6.85;;;;;;;;;;10619576;22;20048;-70
2023/07/22 08:44:11;;;;;;;7.10;6.50;;;;;;;;;;10130073;22;20052;-70
2023/07/22 08:59:24;;;;;;;6.75;6.25;;;;;;;;;;10260765;22;20496;-71
2023/07/22 09:04:22;;;;;;;7.75;7.25;;;;;;;;;;10353099;28;20792;-70
2023/07/22 09:09:19;;;;;;;6.88;6.28;;;;;;;;;;10348965;28;20083;-70
2023/07/22 09:14:18;;;;;;;8.45;6.80;;;;;;;;;;10340925;28;20516;-70
2023/07/22 09:19:33;;;;;;;6.97;6.47;;;;;;;;;;10336198;28;20504;-74
2023/07/22 09:24:29;;;;;;;6.85;6.20;;;;;;;;;;10323990;28;20048;-74
2023/07/22 09:34:37;;;;;;;6.97;6.45;;;;;;;;;;8390075;26;20056;-70
2023/07/22 09:39:34;;;;;;;6.40;5.85;;;;;;;;;;10377559;22;20049;-73
2023/07/22 09:44:32;;;;;;;7.05;6.45;;;;;;;;;;10245929;28;20532;-69
2023/07/22 09:49:28;;;;;;;7.55;6.82;;;;;;;;;;10274516;28;20128;-72
2023/07/22 09:54:28;;;;;;;7.15;6.50;;;;;;;;;;10305445;28;20051;-72
2023/07/22 09:59:27;;;;;;;8.73;7.05;;;;;;;;;;10297437;28;20086;-74
2023/07/22 10:04:24;;;;;;;6.35;5.70;;;;;;;;;;10302482;28;20472;-72
2023/07/22 10:09:30;;;;;;;6.40;5.90;;;;;;;;;;10291539;28;20094;-73
2023/07/22 10:14:36;;;;;;;6.82;6.32;;;;;;;;;;10300194;28;20063;-73
2023/07/22 10:19:34;;;;;;;6.82;6.22;;;;;;;;;;10297949;28;20045;-69
2023/07/22 10:30:43;;;;;;;6.90;6.30;;;;;;;;;;10306884;28;20068;-73
2023/07/22 10:35:41;;;;;;;7.35;6.72;;;;;;;;;;10295607;28;20049;-70
2023/07/22 10:40:49;;;;;;;6.85;6.13;;;;;;;;;;10327584;28;20145;-74
2023/07/22 10:45:52;;;;;;;6.88;6.30;;;;;;;;;;10342431;28;20047;-74
2023/07/22 10:50:50;;;;;;;6.93;6.32;;;;;;;;;;10331997;28;20044;-73
2023/07/22 10:56:05;;;;;;;9.65;6.55;;;;;;;;;;10354203;28;20050;-74
2023/07/22 11:01:24;;;;;;;6.95;6.35;;;;;;;;;;10412185;22;20056;-75
2023/07/22 11:06:21;;;;;;;6.65;6.03;;;;;;;;;;10261038;28;20142;-72
2023/07/22 11:16:33;;;;;;;6.45;5.90;;;;;;;;;;10732614;23;20382;-71
2023/07/22 11:21:29;;;;;;;5.95;5.45;;;;;;;;;;10269417;28;20048;-72
2023/07/22 11:26:26;;;;;;;6.35;5.75;;;;;;;;;;10263286;28;20049;-72
2023/07/22 11:36:35;;;;;;;6.47;5.87;;;;;;;;;;6469490;26;20045;-72
2023/07/22 11:46:47;;;;;;;6.95;6.35;;;;;;;;;;10743234;22;20044;-72
2023/07/22 11:56:56;;;;;;;6.85;6.25;;;;;;;;;;10332111;22;20045;-72
2023/07/22 12:01:52;;;;;;;7.18;6.47;;;;;;;;;;10321918;22;20060;-71
2023/07/22 12:06:49;;;;;;;11.52;6.50;;;;;;;;;;10299156;28;20144;-72
2023/07/22 12:16:53;;;;;;;7.60;6.90;;;;;;;;;;10661770;22;20079;-73
2023/07/22 12:21:49;;;;;;;7.78;6.88;;;;;;;;;;11027433;22;20049;-72
2023/07/22 12:26:45;;;;;;;7.70;7.00;;;;;;;;;;10257675;28;20107;-73
2023/07/22 12:48:06;;;;;;;12.60;10.23;;;;;;;;;;10245395;28;20037;-73
2023/07/22 13:14:59;;;;;;;9.43;8.52;;;;;;;;;;10528097;23;20065;-73
2023/07/22 13:19:56;;;;;;;10.20;9.15;;;;;;;;;;10532039;22;20095;-72
2023/07/22 13:24:52;;;;;;;11.15;9.10;;;;;;;;;;10256231;28;20099;-73
2023/07/22 13:35:00;;;;;;;9.65;8.52;;;;;;;;;;2712228;22;20445;-71
2023/07/22 13:39:57;;;;;;;13.10;10.85;;;;;;;;;;10259496;28;20057;-71
2023/07/22 13:44:54;;;;;;;11.43;10.32;;;;;;;;;;10258007;28;20653;-71
2023/07/22 13:49:50;;;;;;;16.98;14.15;;;;;;;;;;10256241;28;20467;-71
2023/07/22 13:54:46;;;;;;;15.63;14.13;;;;;;;;;;10272991;28;20045;-71
2023/07/22 13:59:43;;;;;;;14.88;13.35;;;;;;;;;;10263845;28;20041;-72
2023/07/22 14:04:39;;;;;;;14.65;13.35;;;;;;;;;;10261844;28;20072;-72
2023/07/22 14:09:36;;;;;;;14.82;12.73;;;;;;;;;;10267442;28;20659;-71
2023/07/22 14:14:33;;;;;;;12.68;11.38;;;;;;;;;;10269249;28;20571;-71
2023/07/22 14:19:29;;;;;;;15.30;13.80;;;;;;;;;;10277484;28;20060;-72
2023/07/22 14:24:25;;;;;;;13.50;12.30;;;;;;;;;;10254277;28;20071;-73
2023/07/22 14:29:22;;;;;;;12.52;10.63;;;;;;;;;;10276566;28;20049;-72
2023/07/22 14:34:18;;;;;;;11.05;9.85;;;;;;;;;;10264712;28;20118;-71
2023/07/22 14:39:14;;;;;;;13.48;11.27;;;;;;;;;;10264526;28;20107;-72
2023/07/22 14:44:11;;;;;;;10.48;9.38;;;;;;;;;;10272773;28;20211;-72
2023/07/22 14:49:09;;;;;;;9.73;8.60;;;;;;;;;;10285923;28;20044;-72
2023/07/22 14:54:06;;;;;;;9.82;8.82;;;;;;;;;;10273726;28;20132;-72
2023/07/22 14:59:02;;;;;;;10.65;8.68;;;;;;;;;;10282005;28;20048;-70
2023/07/22 15:03:58;;;;;;;12.43;7.53;;;;;;;;;;10277108;28;20501;-70
2023/07/22 15:08:55;;;;;;;10.13;7.55;;;;;;;;;;10272536;28;20060;-70
2023/07/22 15:20:03;;;;;;;7.82;7.03;;;;;;;;;;10275133;28;20045;-76
2023/07/22 15:31:03;;;;;;;9.15;7.95;;;;;;;;;;10023823;28;20059;-71
2023/07/22 15:35:59;;;;;;;8.10;7.05;;;;;;;;;;10040630;28;20527;-71
2023/07/22 15:40:56;;;;;;;9.05;7.90;;;;;;;;;;10272820;28;20053;-70
2023/07/22 15:45:52;;;;;;;9.63;7.40;;;;;;;;;;10271584;28;20424;-71
2023/07/22 15:50:49;;;;;;;11.38;7.95;;;;;;;;;;10367999;22;20051;-71
2023/07/22 15:55:45;;;;;;;8.80;7.95;;;;;;;;;;10272301;28;20049;-71
2023/07/22 16:00:41;;;;;;;9.02;8.13;;;;;;;;;;10260496;23;20056;-71
2023/07/22 16:05:38;;;;;;;9.90;8.88;;;;;;;;;;10219955;28;20053;-70
2023/07/22 16:15:45;;;;;;;9.88;8.98;;;;;;;;;;10729924;23;20641;-71
2023/07/22 16:20:41;;;;;;;11.48;9.63;;;;;;;;;;10222899;28;20041;-71
2023/07/22 16:25:37;;;;;;;9.70;8.70;;;;;;;;;;10207533;28;20498;-70
2023/07/22 16:35:45;;;;;;;9.00;8.10;;;;;;;;;;11358449;22;20049;-70
2023/07/22 16:46:13;;;;;;;9.93;8.93;;;;;;;;;;10302228;23;20394;-71
2023/07/22 16:56:35;;;;;;;10.93;9.30;;;;;;;;;;10210165;22;20084;-71
2023/07/22 17:01:31;;;;;;;9.70;8.75;;;;;;;;;;10230242;28;20060;-72
2023/07/22 17:06:29;;;;;;;9.52;8.63;;;;;;;;;;10229245;28;20041;-71
2023/07/22 17:11:26;;;;;;;11.02;9.35;;;;;;;;;;11208877;22;20052;-72
2023/07/22 17:16:23;;;;;;;11.30;9.30;;;;;;;;;;10252445;28;20520;-71
2023/07/22 17:21:19;;;;;;;10.02;9.13;;;;;;;;;;10268808;28;20052;-71
2023/07/22 17:26:18;;;;;;;10.68;9.77;;;;;;;;;;10249218;28;20083;-71
2023/07/22 17:36:26;;;;;;;11.57;10.57;;;;;;;;;;10557108;22;20045;-71
2023/07/22 17:46:34;;;;;;;13.20;9.82;;;;;;;;;;10539906;22;20389;-71
2023/07/22 17:51:30;;;;;;;12.20;10.98;;;;;;;;;;10230867;28;20509;-71
2023/07/22 17:56:27;;;;;;;12.43;11.23;;;;;;;;;;10241256;28;20045;-71
2023/07/22 18:06:55;;;;;;;12.18;11.07;;;;;;;;;;2706925;26;20045;-71
2023/07/22 18:16:57;;;;;;;12.18;10.95;;;;;;;;;;2762252;26;20541;-72
2023/07/22 18:21:54;;;;;;;11.88;10.52;;;;;;;;;;10203135;28;20141;-71
2023/07/22 18:26:50;;;;;;;10.88;9.73;;;;;;;;;;10208322;28;20041;-72
2023/07/22 18:37:20;;;;;;;10.50;9.45;;;;;;;;;;11900636;22;20050;-72
2023/07/22 18:47:22;;;;;;;13.40;11.02;;;;;;;;;;9370904;26;20422;-71
2023/07/22 18:52:19;;;;;;;12.02;10.82;;;;;;;;;;10270412;22;20064;-72
2023/07/22 18:57:15;;;;;;;11.25;10.35;;;;;;;;;;10262651;28;20061;-71
2023/07/22 19:02:12;;;;;;;12.15;10.95;;;;;;;;;;10448318;22;20046;-72
2023/07/22 19:07:08;;;;;;;11.93;10.77;;;;;;;;;;10259261;28;20156;-71
2023/07/22 19:17:10;;;;;;;13.27;11.43;;;;;;;;;;4661617;26;20073;-71
2023/07/22 19:22:06;;;;;;;13.70;12.35;;;;;;;;;;10386143;23;20390;-71
2023/07/22 19:27:02;;;;;;;13.68;12.40;;;;;;;;;;10213327;28;20065;-71
2023/07/22 19:53:45;;;;;;;14.77;13.33;;;;;;;;;;2622892;26;20144;-73
2023/07/22 20:31:22;;;;;;;17.50;15.70;;;;;;;;;;10217708;28;20096;-71
2023/07/22 20:36:19;;;;;;;16.73;15.13;;;;;;;;;;10221224;28;20049;-71
2023/07/22 20:46:47;;;;;;;15.57;13.97;;;;;;;;;;10246642;23;20508;-72
2023/07/22 21:02:30;;;;;;;18.13;16.33;;;;;;;;;;10400818;22;20124;-71
2023/07/22 21:07:26;;;;;;;17.20;15.50;;;;;;;;;;10259606;28;20073;-72
2023/07/22 21:12:23;;;;;;;17.95;16.13;;;;;;;;;;10398452;22;20041;-71
2023/07/22 21:17:19;;;;;;;17.85;16.05;;;;;;;;;;10306163;28;20041;-72
2023/07/22 21:22:16;;;;;;;17.27;15.55;;;;;;;;;;10299222;22;20047;-72
2023/07/22 21:27:13;;;;;;;14.35;13.02;;;;;;;;;;10135015;28;20054;-68
2023/07/22 21:32:10;;;;;;;15.38;13.75;;;;;;;;;;10144932;28;20158;-68
2023/07/22 21:37:13;;;;;;;15.60;14.30;;;;;;;;;;10134684;28;20050;-68
2023/07/22 21:42:12;;;;;;;14.30;12.90;;;;;;;;;;10139897;28;20104;-68
2023/07/22 21:47:08;;;;;;;14.05;12.75;;;;;;;;;;10152522;28;20557;-68
2023/07/22 21:52:04;;;;;;;14.70;13.43;;;;;;;;;;10137080;28;20042;-69
2023/07/22 21:57:01;;;;;;;15.13;13.82;;;;;;;;;;10138949;28;20141;-68
2023/07/22 22:01:57;;;;;;;15.65;14.15;;;;;;;;;;10156491;28;20590;-70
2023/07/22 22:06:54;;;;;;;15.18;13.80;;;;;;;;;;10153783;28;20165;-70
2023/07/22 22:11:53;;;;;;;14.85;13.35;;;;;;;;;;10141713;28;20096;-71
2023/07/22 22:16:49;;;;;;;14.63;13.27;;;;;;;;;;10140837;28;20053;-71
2023/07/22 22:21:46;;;;;;;15.15;13.40;;;;;;;;;;10144121;28;20057;-72
2023/07/22 22:26:42;;;;;;;15.60;14.10;;;;;;;;;;10152742;28;20106;-72
2023/07/22 22:31:48;;;;;;;;;;;;;;;;;;;;;
2023/07/22 22:36:48;;;;;;;16.05;14.32;;;;;;;;;;10227847;28;20577;-70
2023/07/22 22:41:45;;;;;;;15.45;13.95;;;;;;;;;;10229093;28;20420;-69
2023/07/22 22:46:42;;;;;;;16.17;14.57;;;;;;;;;;10226890;28;20056;-69
2023/07/22 22:51:38;;;;;;;13.85;12.60;;;;;;;;;;10218243;28;20107;-69
2023/07/22 22:56:35;;;;;;;13.93;12.65;;;;;;;;;;10224932;28;20057;-70
2023/07/22 23:01:32;;;;;;;15.18;13.75;;;;;;;;;;10220307;28;20084;-69
2023/07/22 23:06:28;;;;;;;14.90;13.57;;;;;;;;;;10224669;28;20416;-70
2023/07/22 23:11:24;;;;;;;15.27;13.85;;;;;;;;;;10222303;28;20578;-70
2023/07/22 23:16:21;;;;;;;15.30;13.80;;;;;;;;;;10218505;28;20429;-68
2023/07/22 23:21:18;;;;;;;16.15;14.55;;;;;;;;;;10219317;28;20448;-71
2023/07/22 23:26:14;;;;;;;15.38;14.07;;;;;;;;;;10222693;28;20137;-71
2023/07/22 23:31:11;;;;;;;15.45;14.02;;;;;;;;;;10210042;28;20540;-70
2023/07/22 23:36:08;;;;;;;15.23;13.73;;;;;;;;;;10227570;28;20049;-70
2023/07/22 23:41:06;;;;;;;15.52;14.13;;;;;;;;;;10226081;28;20099;-69
2023/07/22 23:46:02;;;;;;;15.55;14.02;;;;;;;;;;10224680;28;20049;-71
2023/07/22 23:56:11;;;;;;;15.45;14.02;;;;;;;;;;10076615;26;20049;-69
